LRSV/SCV METAR and TAF weather

Enter ICAO airport designator
Station Type Date Time Source
LRSV METAR 2020/11/27 13:30 UTC NOAA

LRSV 271330Z 24003KT 8000 NSC 03/M02 Q1019


Station Type Date Time Source
LRSV Decoded METAR 2020/11/27 13:30 UTC NOAA

Suceava / Salcea, Romania (LRSV) 47-39N 026-15E 351M
Nov 27, 2020 - 08:30 AM EST / 2020.11.27 1330 UTC
Wind: from the WSW (240 degrees) at 3 MPH (3 KT):0
Visibility: 4 mile(s):0
Temperature: 37 F (3 C)
Dew Point: 28 F (-2 C)
Relative Humidity: 69%
Pressure (altimeter): 30.09 in. Hg (1019 hPa)
ob: LRSV 271330Z 24003KT 8000 NSC 03/M02 Q1019
cycle: 13

Station Type Date Time Source
LRSV TAF 2014/07/19 18:48 UTC NOAA

TAF LRSV 191800Z 1918/2024 CNL

Example: see airport list